sensor_id;sensor_type;location;lat;lon;timestamp;P1;durP1;ratioP1;P2;durP2;ratioP2
52744;SDS011;38637;49.984;20.426;2023-01-10T00:02:14;28.00;;;21.07;;
52744;SDS011;38637;49.984;20.426;2023-01-10T00:04:39;30.17;;;20.63;;
52744;SDS011;38637;49.984;20.426;2023-01-10T00:07:04;32.47;;;22.30;;
52744;SDS011;38637;49.984;20.426;2023-01-10T00:09:29;31.73;;;22.90;;
52744;SDS011;38637;49.984;20.426;2023-01-10T00:11:55;30.53;;;22.70;;
52744;SDS011;38637;49.984;20.426;2023-01-10T00:14:39;26.98;;;21.35;;
52744;SDS011;38637;49.984;20.426;2023-01-10T00:17:04;32.93;;;24.23;;
52744;SDS011;38637;49.984;20.426;2023-01-10T00:19:29;35.87;;;25.33;;
52744;SDS011;38637;49.984;20.426;2023-01-10T00:21:55;33.13;;;23.93;;
52744;SDS011;38637;49.984;20.426;2023-01-10T00:24:29;34.13;;;25.40;;
52744;SDS011;38637;49.984;20.426;2023-01-10T00:26:55;36.83;;;26.10;;
52744;SDS011;38637;49.984;20.426;2023-01-10T00:29:21;36.90;;;26.83;;
52744;SDS011;38637;49.984;20.426;2023-01-10T00:31:49;36.10;;;26.42;;
52744;SDS011;38637;49.984;20.426;2023-01-10T00:34:14;35.10;;;25.10;;
52744;SDS011;38637;49.984;20.426;2023-01-10T00:36:40;36.30;;;25.23;;
52744;SDS011;38637;49.984;20.426;2023-01-10T00:39:06;36.90;;;25.90;;
52744;SDS011;38637;49.984;20.426;2023-01-10T00:41:31;39.50;;;27.83;;
52744;SDS011;38637;49.984;20.426;2023-01-10T00:44:15;38.33;;;26.67;;
52744;SDS011;38637;49.984;20.426;2023-01-10T00:46:40;39.30;;;29.00;;
52744;SDS011;38637;49.984;20.426;2023-01-10T00:49:06;43.00;;;29.43;;
52744;SDS011;38637;49.984;20.426;2023-01-10T00:51:37;33.80;;;26.45;;
52744;SDS011;38637;49.984;20.426;2023-01-10T00:54:03;38.87;;;28.13;;
52744;SDS011;38637;49.984;20.426;2023-01-10T00:56:28;41.87;;;29.50;;
52744;SDS011;38637;49.984;20.426;2023-01-10T00:58:53;38.23;;;28.50;;
52744;SDS011;38637;49.984;20.426;2023-01-10T01:01:19;40.80;;;28.60;;
52744;SDS011;38637;49.984;20.426;2023-01-10T01:03:44;37.10;;;27.80;;
52744;SDS011;38637;49.984;20.426;2023-01-10T01:06:09;41.40;;;30.80;;
52744;SDS011;38637;49.984;20.426;2023-01-10T01:08:35;40.87;;;28.67;;
52744;SDS011;38637;49.984;20.426;2023-01-10T01:11:00;47.23;;;31.40;;
52744;SDS011;38637;49.984;20.426;2023-01-10T01:13:26;43.80;;;30.17;;
52744;SDS011;38637;49.984;20.426;2023-01-10T01:15:51;40.70;;;29.77;;
52744;SDS011;38637;49.984;20.426;2023-01-10T01:18:19;42.83;;;30.20;;
52744;SDS011;38637;49.984;20.426;2023-01-10T01:20:46;44.67;;;30.40;;
52744;SDS011;38637;49.984;20.426;2023-01-10T01:23:12;41.63;;;30.05;;
52744;SDS011;38637;49.984;20.426;2023-01-10T01:25:40;42.38;;;30.50;;
52744;SDS011;38637;49.984;20.426;2023-01-10T01:28:06;45.67;;;30.53;;
52744;SDS011;38637;49.984;20.426;2023-01-10T01:30:32;46.83;;;30.03;;
52744;SDS011;38637;49.984;20.426;2023-01-10T01:32:57;43.67;;;30.23;;
52744;SDS011;38637;49.984;20.426;2023-01-10T01:35:23;50.03;;;33.87;;
52744;SDS011;38637;49.984;20.426;2023-01-10T01:37:49;44.57;;;32.40;;
52744;SDS011;38637;49.984;20.426;2023-01-10T01:40:15;45.77;;;33.97;;
52744;SDS011;38637;49.984;20.426;2023-01-10T01:42:43;48.13;;;34.38;;
52744;SDS011;38637;49.984;20.426;2023-01-10T01:47:45;51.97;;;35.70;;
52744;SDS011;38637;49.984;20.426;2023-01-10T01:50:33;50.88;;;34.70;;
52744;SDS011;38637;49.984;20.426;2023-01-10T01:53:14;45.75;;;33.63;;
52744;SDS011;38637;49.984;20.426;2023-01-10T01:55:51;48.72;;;33.20;;
52744;SDS011;38637;49.984;20.426;2023-01-10T01:58:20;42.88;;;30.52;;
52744;SDS011;38637;49.984;20.426;2023-01-10T02:00:53;45.60;;;32.55;;
52744;SDS011;38637;49.984;20.426;2023-01-10T02:03:19;44.20;;;32.20;;
52744;SDS011;38637;49.984;20.426;2023-01-10T02:05:44;43.20;;;30.43;;
52744;SDS011;38637;49.984;20.426;2023-01-10T02:08:10;42.53;;;29.40;;
52744;SDS011;38637;49.984;20.426;2023-01-10T02:10:40;42.78;;;29.15;;
52744;SDS011;38637;49.984;20.426;2023-01-10T02:13:10;37.60;;;27.52;;
52744;SDS011;38637;49.984;20.426;2023-01-10T02:15:39;37.78;;;26.73;;
52744;SDS011;38637;49.984;20.426;2023-01-10T02:18:04;41.47;;;28.73;;
52744;SDS011;38637;49.984;20.426;2023-01-10T02:20:34;38.33;;;27.15;;
52744;SDS011;38637;49.984;20.426;2023-01-10T02:29:06;35.80;;;24.38;;
52744;SDS011;38637;49.984;20.426;2023-01-10T02:32:08;32.83;;;24.20;;
52744;SDS011;38637;49.984;20.426;2023-01-10T02:40:20;33.17;;;22.70;;
52744;SDS011;38637;49.984;20.426;2023-01-10T02:43:08;28.98;;;21.92;;
52744;SDS011;38637;49.984;20.426;2023-01-10T02:48:21;29.13;;;21.55;;
52744;SDS011;38637;49.984;20.426;2023-01-10T02:50:51;29.13;;;20.70;;
52744;SDS011;38637;49.984;20.426;2023-01-10T02:55:58;30.10;;;22.83;;
52744;SDS011;38637;49.984;20.426;2023-01-10T03:03:55;33.00;;;22.50;;
52744;SDS011;38637;49.984;20.426;2023-01-10T03:06:46;28.90;;;20.25;;
52744;SDS011;38637;49.984;20.426;2023-01-10T03:09:20;28.33;;;21.27;;
52744;SDS011;38637;49.984;20.426;2023-01-10T03:11:56;29.60;;;21.52;;
52744;SDS011;38637;49.984;20.426;2023-01-10T03:14:32;28.80;;;21.80;;
52744;SDS011;38637;49.984;20.426;2023-01-10T03:17:04;32.38;;;23.15;;
52744;SDS011;38637;49.984;20.426;2023-01-10T03:19:33;26.38;;;21.60;;
52744;SDS011;38637;49.984;20.426;2023-01-10T03:22:03;29.13;;;21.25;;
52744;SDS011;38637;49.984;20.426;2023-01-10T03:24:33;32.50;;;24.30;;
52744;SDS011;38637;49.984;20.426;2023-01-10T03:27:05;26.88;;;21.23;;
52744;SDS011;38637;49.984;20.426;2023-01-10T03:29:36;31.45;;;22.65;;
52744;SDS011;38637;49.984;20.426;2023-01-10T03:32:08;30.42;;;23.75;;
52744;SDS011;38637;49.984;20.426;2023-01-10T03:34:37;33.03;;;24.35;;
52744;SDS011;38637;49.984;20.426;2023-01-10T03:37:15;31.00;;;24.05;;
52744;SDS011;38637;49.984;20.426;2023-01-10T03:39:51;30.83;;;22.88;;
52744;SDS011;38637;49.984;20.426;2023-01-10T03:42:27;32.03;;;22.77;;
52744;SDS011;38637;49.984;20.426;2023-01-10T03:45:33;29.48;;;22.08;;
52744;SDS011;38637;49.984;20.426;2023-01-10T03:48:07;32.45;;;23.85;;
52744;SDS011;38637;49.984;20.426;2023-01-10T03:50:35;30.38;;;22.27;;
52744;SDS011;38637;49.984;20.426;2023-01-10T03:53:03;31.20;;;23.38;;
52744;SDS011;38637;49.984;20.426;2023-01-10T03:55:29;26.73;;;20.92;;
52744;SDS011;38637;49.984;20.426;2023-01-10T03:57:56;29.45;;;22.35;;
52744;SDS011;38637;49.984;20.426;2023-01-10T04:00:22;31.67;;;21.13;;
52744;SDS011;38637;49.984;20.426;2023-01-10T04:02:48;26.27;;;20.85;;
52744;SDS011;38637;49.984;20.426;2023-01-10T04:05:13;23.57;;;18.60;;
52744;SDS011;38637;49.984;20.426;2023-01-10T04:07:38;26.90;;;20.50;;
52744;SDS011;38637;49.984;20.426;2023-01-10T04:10:04;29.70;;;19.60;;
52744;SDS011;38637;49.984;20.426;2023-01-10T04:12:30;26.05;;;17.08;;
52744;SDS011;38637;49.984;20.426;2023-01-10T04:14:56;23.73;;;16.40;;
52744;SDS011;38637;49.984;20.426;2023-01-10T04:17:21;19.83;;;13.67;;
52744;SDS011;38637;49.984;20.426;2023-01-10T04:19:46;22.47;;;15.87;;
52744;SDS011;38637;49.984;20.426;2023-01-10T04:22:12;24.40;;;16.87;;
52744;SDS011;38637;49.984;20.426;2023-01-10T04:24:37;26.57;;;18.83;;
52744;SDS011;38637;49.984;20.426;2023-01-10T04:27:02;25.30;;;18.77;;
52744;SDS011;38637;49.984;20.426;2023-01-10T04:29:28;25.10;;;17.05;;
52744;SDS011;38637;49.984;20.426;2023-01-10T04:31:54;20.10;;;16.13;;
52744;SDS011;38637;49.984;20.426;2023-01-10T04:34:19;25.27;;;16.67;;
52744;SDS011;38637;49.984;20.426;2023-01-10T04:36:45;20.48;;;16.80;;
52744;SDS011;38637;49.984;20.426;2023-01-10T04:39:11;21.47;;;17.47;;
52744;SDS011;38637;49.984;20.426;2023-01-10T04:41:37;23.10;;;16.83;;
52744;SDS011;38637;49.984;20.426;2023-01-10T04:44:03;25.55;;;18.35;;
52744;SDS011;38637;49.984;20.426;2023-01-10T04:46:28;22.70;;;17.27;;
52744;SDS011;38637;49.984;20.426;2023-01-10T04:48:54;26.30;;;18.30;;
52744;SDS011;38637;49.984;20.426;2023-01-10T04:51:19;24.60;;;18.93;;
52744;SDS011;38637;49.984;20.426;2023-01-10T04:53:45;23.63;;;17.70;;
52744;SDS011;38637;49.984;20.426;2023-01-10T04:56:14;23.27;;;17.73;;
52744;SDS011;38637;49.984;20.426;2023-01-10T04:58:42;24.30;;;17.20;;
52744;SDS011;38637;49.984;20.426;2023-01-10T05:01:13;21.57;;;16.53;;
52744;SDS011;38637;49.984;20.426;2023-01-10T05:03:49;21.65;;;17.00;;
52744;SDS011;38637;49.984;20.426;2023-01-10T05:08:41;26.08;;;18.42;;
52744;SDS011;38637;49.984;20.426;2023-01-10T05:11:07;24.07;;;17.93;;
52744;SDS011;38637;49.984;20.426;2023-01-10T05:13:32;26.23;;;18.23;;
52744;SDS011;38637;49.984;20.426;2023-01-10T05:15:58;27.97;;;19.77;;
52744;SDS011;38637;49.984;20.426;2023-01-10T05:18:24;24.05;;;17.58;;
52744;SDS011;38637;49.984;20.426;2023-01-10T05:20:50;23.33;;;17.60;;
52744;SDS011;38637;49.984;20.426;2023-01-10T05:23:16;18.23;;;13.20;;
52744;SDS011;38637;49.984;20.426;2023-01-10T05:25:41;17.10;;;12.87;;
52744;SDS011;38637;49.984;20.426;2023-01-10T05:28:07;18.37;;;13.87;;
52744;SDS011;38637;49.984;20.426;2023-01-10T05:30:32;17.80;;;14.23;;
52744;SDS011;38637;49.984;20.426;2023-01-10T05:32:58;18.07;;;13.40;;
52744;SDS011;38637;49.984;20.426;2023-01-10T05:35:23;20.10;;;14.87;;
52744;SDS011;38637;49.984;20.426;2023-01-10T05:37:48;17.27;;;13.60;;
52744;SDS011;38637;49.984;20.426;2023-01-10T05:40:14;14.50;;;11.33;;
52744;SDS011;38637;49.984;20.426;2023-01-10T05:42:39;15.13;;;11.77;;
52744;SDS011;38637;49.984;20.426;2023-01-10T05:45:05;14.48;;;10.38;;
52744;SDS011;38637;49.984;20.426;2023-01-10T05:47:31;13.13;;;9.60;;
52744;SDS011;38637;49.984;20.426;2023-01-10T05:49:56;13.23;;;9.57;;
52744;SDS011;38637;49.984;20.426;2023-01-10T05:52:21;15.20;;;9.70;;
52744;SDS011;38637;49.984;20.426;2023-01-10T05:54:47;15.80;;;10.80;;
52744;SDS011;38637;49.984;20.426;2023-01-10T05:57:12;21.00;;;13.93;;
52744;SDS011;38637;49.984;20.426;2023-01-10T05:59:38;23.87;;;15.37;;
52744;SDS011;38637;49.984;20.426;2023-01-10T06:02:03;20.03;;;12.13;;
52744;SDS011;38637;49.984;20.426;2023-01-10T06:04:28;14.27;;;8.77;;
52744;SDS011;38637;49.984;20.426;2023-01-10T06:06:54;12.00;;;7.47;;
52744;SDS011;38637;49.984;20.426;2023-01-10T06:09:19;9.73;;;7.07;;
52744;SDS011;38637;49.984;20.426;2023-01-10T06:11:44;9.07;;;7.30;;
52744;SDS011;38637;49.984;20.426;2023-01-10T06:14:09;9.67;;;7.90;;
52744;SDS011;38637;49.984;20.426;2023-01-10T06:16:35;12.83;;;7.63;;
52744;SDS011;38637;49.984;20.426;2023-01-10T06:19:00;12.57;;;8.70;;
52744;SDS011;38637;49.984;20.426;2023-01-10T06:21:25;15.50;;;9.93;;
52744;SDS011;38637;49.984;20.426;2023-01-10T06:23:51;16.70;;;9.83;;
52744;SDS011;38637;49.984;20.426;2023-01-10T06:26:16;14.70;;;9.67;;
52744;SDS011;38637;49.984;20.426;2023-01-10T06:28:42;10.63;;;8.10;;
52744;SDS011;38637;49.984;20.426;2023-01-10T06:31:08;9.03;;;6.53;;
52744;SDS011;38637;49.984;20.426;2023-01-10T06:33:33;7.33;;;5.73;;
52744;SDS011;38637;49.984;20.426;2023-01-10T06:35:59;8.90;;;5.63;;
52744;SDS011;38637;49.984;20.426;2023-01-10T06:38:24;10.00;;;5.30;;
52744;SDS011;38637;49.984;20.426;2023-01-10T06:40:49;7.00;;;4.67;;
52744;SDS011;38637;49.984;20.426;2023-01-10T06:43:15;7.17;;;4.47;;
52744;SDS011;38637;49.984;20.426;2023-01-10T06:45:40;7.43;;;4.03;;
52744;SDS011;38637;49.984;20.426;2023-01-10T06:48:05;6.63;;;4.07;;
52744;SDS011;38637;49.984;20.426;2023-01-10T06:50:31;5.00;;;3.50;;
52744;SDS011;38637;49.984;20.426;2023-01-10T06:52:56;4.40;;;3.07;;
52744;SDS011;38637;49.984;20.426;2023-01-10T06:55:23;5.57;;;3.72;;
52744;SDS011;38637;49.984;20.426;2023-01-10T06:57:53;7.15;;;3.78;;
52744;SDS011;38637;49.984;20.426;2023-01-10T07:00:26;9.93;;;4.15;;
52744;SDS011;38637;49.984;20.426;2023-01-10T07:02:54;7.00;;;4.22;;
52744;SDS011;38637;49.984;20.426;2023-01-10T07:05:22;7.43;;;4.40;;
52744;SDS011;38637;49.984;20.426;2023-01-10T07:07:47;7.03;;;4.27;;
52744;SDS011;38637;49.984;20.426;2023-01-10T07:10:12;6.33;;;5.33;;
52744;SDS011;38637;49.984;20.426;2023-01-10T07:12:38;9.97;;;6.37;;
52744;SDS011;38637;49.984;20.426;2023-01-10T07:15:03;7.57;;;5.73;;
52744;SDS011;38637;49.984;20.426;2023-01-10T07:17:29;8.50;;;5.68;;
52744;SDS011;38637;49.984;20.426;2023-01-10T07:19:54;9.53;;;5.07;;
52744;SDS011;38637;49.984;20.426;2023-01-10T07:22:20;7.60;;;5.27;;
52744;SDS011;38637;49.984;20.426;2023-01-10T07:24:45;7.07;;;4.80;;
52744;SDS011;38637;49.984;20.426;2023-01-10T07:27:10;8.13;;;4.83;;
52744;SDS011;38637;49.984;20.426;2023-01-10T07:29:36;5.17;;;4.23;;
52744;SDS011;38637;49.984;20.426;2023-01-10T07:32:01;9.07;;;5.43;;
52744;SDS011;38637;49.984;20.426;2023-01-10T07:34:27;7.70;;;5.10;;
52744;SDS011;38637;49.984;20.426;2023-01-10T07:36:52;5.63;;;4.00;;
52744;SDS011;38637;49.984;20.426;2023-01-10T07:39:17;6.93;;;3.93;;
52744;SDS011;38637;49.984;20.426;2023-01-10T07:41:43;6.83;;;3.87;;
52744;SDS011;38637;49.984;20.426;2023-01-10T07:44:08;4.07;;;3.30;;
52744;SDS011;38637;49.984;20.426;2023-01-10T07:46:33;3.50;;;3.10;;
52744;SDS011;38637;49.984;20.426;2023-01-10T07:48:58;4.60;;;3.20;;
52744;SDS011;38637;49.984;20.426;2023-01-10T07:51:24;4.20;;;2.83;;
52744;SDS011;38637;49.984;20.426;2023-01-10T07:53:49;3.17;;;2.00;;
52744;SDS011;38637;49.984;20.426;2023-01-10T07:56:14;2.23;;;2.03;;
52744;SDS011;38637;49.984;20.426;2023-01-10T07:58:40;1.90;;;1.80;;
52744;SDS011;38637;49.984;20.426;2023-01-10T08:01:05;3.03;;;2.73;;
52744;SDS011;38637;49.984;20.426;2023-01-10T08:03:31;4.45;;;1.80;;
52744;SDS011;38637;49.984;20.426;2023-01-10T08:06:01;4.17;;;2.27;;
52744;SDS011;38637;49.984;20.426;2023-01-10T08:08:31;4.93;;;2.30;;
52744;SDS011;38637;49.984;20.426;2023-01-10T08:10:57;4.68;;;2.85;;
52744;SDS011;38637;49.984;20.426;2023-01-10T08:13:29;4.65;;;2.47;;
52744;SDS011;38637;49.984;20.426;2023-01-10T08:15:56;5.55;;;2.90;;
52744;SDS011;38637;49.984;20.426;2023-01-10T08:18:22;3.03;;;2.07;;
52744;SDS011;38637;49.984;20.426;2023-01-10T08:20:51;2.92;;;2.15;;
52744;SDS011;38637;49.984;20.426;2023-01-10T08:23:18;3.65;;;2.13;;
52744;SDS011;38637;49.984;20.426;2023-01-10T08:25:44;2.17;;;1.60;;
52744;SDS011;38637;49.984;20.426;2023-01-10T08:28:10;5.03;;;2.40;;
52744;SDS011;38637;49.984;20.426;2023-01-10T08:30:36;6.50;;;2.27;;
52744;SDS011;38637;49.984;20.426;2023-01-10T08:33:02;3.22;;;2.10;;
52744;SDS011;38637;49.984;20.426;2023-01-10T08:35:29;2.50;;;1.75;;
52744;SDS011;38637;49.984;20.426;2023-01-10T08:37:58;4.27;;;2.30;;
52744;SDS011;38637;49.984;20.426;2023-01-10T08:40:24;3.08;;;2.08;;
52744;SDS011;38637;49.984;20.426;2023-01-10T08:42:55;3.23;;;2.03;;
52744;SDS011;38637;49.984;20.426;2023-01-10T08:45:23;2.83;;;2.10;;
52744;SDS011;38637;49.984;20.426;2023-01-10T08:47:49;2.67;;;1.93;;
52744;SDS011;38637;49.984;20.426;2023-01-10T08:50:14;3.73;;;2.57;;
52744;SDS011;38637;49.984;20.426;2023-01-10T08:52:39;2.83;;;1.90;;
52744;SDS011;38637;49.984;20.426;2023-01-10T08:55:05;7.60;;;2.77;;
52744;SDS011;38637;49.984;20.426;2023-01-10T08:57:30;6.97;;;2.30;;
52744;SDS011;38637;49.984;20.426;2023-01-10T08:59:56;4.30;;;2.60;;
52744;SDS011;38637;49.984;20.426;2023-01-10T09:02:21;2.53;;;2.07;;
52744;SDS011;38637;49.984;20.426;2023-01-10T09:04:47;4.97;;;2.33;;
52744;SDS011;38637;49.984;20.426;2023-01-10T09:07:12;2.67;;;2.47;;
52744;SDS011;38637;49.984;20.426;2023-01-10T09:09:37;4.07;;;2.57;;
52744;SDS011;38637;49.984;20.426;2023-01-10T09:12:02;3.37;;;2.50;;
52744;SDS011;38637;49.984;20.426;2023-01-10T09:14:48;4.03;;;3.13;;
52744;SDS011;38637;49.984;20.426;2023-01-10T09:17:13;4.17;;;2.67;;
52744;SDS011;38637;49.984;20.426;2023-01-10T09:19:38;6.63;;;4.10;;
52744;SDS011;38637;49.984;20.426;2023-01-10T09:22:04;6.70;;;4.90;;
52744;SDS011;38637;49.984;20.426;2023-01-10T09:24:29;8.60;;;6.03;;
52744;SDS011;38637;49.984;20.426;2023-01-10T09:26:54;10.50;;;5.43;;
52744;SDS011;38637;49.984;20.426;2023-01-10T09:29:20;7.83;;;5.00;;
52744;SDS011;38637;49.984;20.426;2023-01-10T09:31:45;8.23;;;5.40;;
52744;SDS011;38637;49.984;20.426;2023-01-10T09:34:10;7.57;;;5.60;;
52744;SDS011;38637;49.984;20.426;2023-01-10T09:36:35;6.67;;;4.07;;
52744;SDS011;38637;49.984;20.426;2023-01-10T09:39:01;6.67;;;4.27;;
52744;SDS011;38637;49.984;20.426;2023-01-10T09:41:46;6.28;;;4.43;;
52744;SDS011;38637;49.984;20.426;2023-01-10T09:47:05;5.70;;;3.95;;
52744;SDS011;38637;49.984;20.426;2023-01-10T09:49:50;4.07;;;3.65;;
52744;SDS011;38637;49.984;20.426;2023-01-10T09:52:43;7.30;;;4.35;;
52744;SDS011;38637;49.984;20.426;2023-01-10T09:55:17;7.20;;;4.97;;
52744;SDS011;38637;49.984;20.426;2023-01-10T09:57:47;7.97;;;5.68;;
52744;SDS011;38637;49.984;20.426;2023-01-10T10:00:19;9.68;;;7.38;;
52744;SDS011;38637;49.984;20.426;2023-01-10T10:02:48;9.60;;;6.82;;
52744;SDS011;38637;49.984;20.426;2023-01-10T10:05:21;8.35;;;5.43;;
52744;SDS011;38637;49.984;20.426;2023-01-10T10:07:52;7.38;;;5.63;;
52744;SDS011;38637;49.984;20.426;2023-01-10T10:10:38;12.05;;;7.80;;
52744;SDS011;38637;49.984;20.426;2023-01-10T10:18:38;11.35;;;7.43;;
52744;SDS011;38637;49.984;20.426;2023-01-10T10:21:15;13.88;;;7.45;;
52744;SDS011;38637;49.984;20.426;2023-01-10T10:26:33;10.20;;;6.23;;
52744;SDS011;38637;49.984;20.426;2023-01-10T10:29:06;10.30;;;6.97;;
52744;SDS011;38637;49.984;20.426;2023-01-10T10:37:02;11.95;;;8.85;;
52744;SDS011;38637;49.984;20.426;2023-01-10T10:39:39;12.18;;;9.13;;
52744;SDS011;38637;49.984;20.426;2023-01-10T10:42:11;8.95;;;7.63;;
52744;SDS011;38637;49.984;20.426;2023-01-10T10:44:39;13.80;;;10.57;;
52744;SDS011;38637;49.984;20.426;2023-01-10T10:47:12;12.02;;;7.93;;
52744;SDS011;38637;49.984;20.426;2023-01-10T10:49:41;8.45;;;7.55;;
52744;SDS011;38637;49.984;20.426;2023-01-10T10:52:24;10.25;;;7.13;;
52744;SDS011;38637;49.984;20.426;2023-01-10T10:54:55;9.48;;;7.18;;
52744;SDS011;38637;49.984;20.426;2023-01-10T10:57:23;11.00;;;7.13;;
52744;SDS011;38637;49.984;20.426;2023-01-10T10:59:52;10.68;;;8.10;;
52744;SDS011;38637;49.984;20.426;2023-01-10T11:02:25;11.50;;;8.85;;
52744;SDS011;38637;49.984;20.426;2023-01-10T11:04:57;14.23;;;9.07;;
52744;SDS011;38637;49.984;20.426;2023-01-10T11:07:24;13.23;;;9.02;;
52744;SDS011;38637;49.984;20.426;2023-01-10T11:09:53;13.25;;;8.85;;
52744;SDS011;38637;49.984;20.426;2023-01-10T11:12:40;13.43;;;9.93;;
52744;SDS011;38637;49.984;20.426;2023-01-10T11:15:13;11.85;;;9.25;;
52744;SDS011;38637;49.984;20.426;2023-01-10T11:18:03;20.10;;;10.63;;
52744;SDS011;38637;49.984;20.426;2023-01-10T11:20:30;16.25;;;12.48;;
52744;SDS011;38637;49.984;20.426;2023-01-10T11:22:56;30.63;;;18.53;;
52744;SDS011;38637;49.984;20.426;2023-01-10T11:25:22;20.17;;;13.33;;
52744;SDS011;38637;49.984;20.426;2023-01-10T11:27:57;18.27;;;11.77;;
52744;SDS011;38637;49.984;20.426;2023-01-10T11:30:29;15.95;;;10.88;;
52744;SDS011;38637;49.984;20.426;2023-01-10T11:32:57;17.00;;;11.57;;
52744;SDS011;38637;49.984;20.426;2023-01-10T11:35:26;15.65;;;11.65;;
52744;SDS011;38637;49.984;20.426;2023-01-10T11:40:29;17.33;;;11.40;;
52744;SDS011;38637;49.984;20.426;2023-01-10T11:42:57;20.13;;;12.20;;
52744;SDS011;38637;49.984;20.426;2023-01-10T11:45:27;20.77;;;14.45;;
52744;SDS011;38637;49.984;20.426;2023-01-10T11:48:01;16.40;;;11.95;;
52744;SDS011;38637;49.984;20.426;2023-01-10T11:50:34;14.60;;;10.57;;
52744;SDS011;38637;49.984;20.426;2023-01-10T11:53:02;9.90;;;8.68;;
52744;SDS011;38637;49.984;20.426;2023-01-10T11:55:31;11.75;;;8.50;;
52744;SDS011;38637;49.984;20.426;2023-01-10T11:58:02;13.65;;;6.93;;
52744;SDS011;38637;49.984;20.426;2023-01-10T12:00:38;12.90;;;7.35;;
52744;SDS011;38637;49.984;20.426;2023-01-10T12:03:29;10.98;;;7.78;;
52744;SDS011;38637;49.984;20.426;2023-01-10T12:05:59;10.63;;;7.47;;
52744;SDS011;38637;49.984;20.426;2023-01-10T12:08:38;10.70;;;7.22;;
52744;SDS011;38637;49.984;20.426;2023-01-10T12:13:47;5.05;;;3.90;;
52744;SDS011;38637;49.984;20.426;2023-01-10T12:16:18;9.10;;;4.88;;
52744;SDS011;38637;49.984;20.426;2023-01-10T12:18:45;6.30;;;4.43;;
52744;SDS011;38637;49.984;20.426;2023-01-10T12:21:11;8.47;;;5.30;;
52744;SDS011;38637;49.984;20.426;2023-01-10T12:23:40;8.23;;;5.28;;
52744;SDS011;38637;49.984;20.426;2023-01-10T12:26:08;7.53;;;5.47;;
52744;SDS011;38637;49.984;20.426;2023-01-10T12:28:37;9.90;;;6.20;;
52744;SDS011;38637;49.984;20.426;2023-01-10T12:31:09;9.52;;;6.70;;
52744;SDS011;38637;49.984;20.426;2023-01-10T12:33:37;9.95;;;6.22;;
52744;SDS011;38637;49.984;20.426;2023-01-10T12:41:52;9.45;;;6.95;;
52744;SDS011;38637;49.984;20.426;2023-01-10T12:45:02;7.93;;;6.03;;
52744;SDS011;38637;49.984;20.426;2023-01-10T12:47:31;8.57;;;6.85;;
52744;SDS011;38637;49.984;20.426;2023-01-10T12:50:04;9.68;;;6.53;;
52744;SDS011;38637;49.984;20.426;2023-01-10T12:52:41;9.93;;;7.35;;
52744;SDS011;38637;49.984;20.426;2023-01-10T12:55:17;9.60;;;6.35;;
52744;SDS011;38637;49.984;20.426;2023-01-10T12:57:48;9.13;;;6.47;;
52744;SDS011;38637;49.984;20.426;2023-01-10T13:00:35;8.13;;;6.38;;
52744;SDS011;38637;49.984;20.426;2023-01-10T13:03:08;8.18;;;6.53;;
52744;SDS011;38637;49.984;20.426;2023-01-10T13:05:37;10.65;;;6.78;;
52744;SDS011;38637;49.984;20.426;2023-01-10T13:08:04;8.00;;;6.67;;
52744;SDS011;38637;49.984;20.426;2023-01-10T13:10:40;9.93;;;6.22;;
52744;SDS011;38637;49.984;20.426;2023-01-10T13:13:14;11.85;;;7.88;;
52744;SDS011;38637;49.984;20.426;2023-01-10T13:15:50;9.30;;;6.40;;
52744;SDS011;38637;49.984;20.426;2023-01-10T13:18:22;10.82;;;7.10;;
52744;SDS011;38637;49.984;20.426;2023-01-10T13:21:09;10.73;;;6.28;;
52744;SDS011;38637;49.984;20.426;2023-01-10T13:23:47;8.23;;;6.30;;
52744;SDS011;38637;49.984;20.426;2023-01-10T13:26:15;9.95;;;6.85;;
52744;SDS011;38637;49.984;20.426;2023-01-10T13:28:52;10.35;;;7.45;;
52744;SDS011;38637;49.984;20.426;2023-01-10T13:31:25;11.20;;;8.32;;
52744;SDS011;38637;49.984;20.426;2023-01-10T13:36:36;8.68;;;7.22;;
52744;SDS011;38637;49.984;20.426;2023-01-10T13:39:06;8.50;;;6.65;;
52744;SDS011;38637;49.984;20.426;2023-01-10T13:45:13;8.25;;;6.03;;
52744;SDS011;38637;49.984;20.426;2023-01-10T13:52:49;9.90;;;7.63;;
52744;SDS011;38637;49.984;20.426;2023-01-10T13:55:25;8.25;;;5.07;;
52744;SDS011;38637;49.984;20.426;2023-01-10T13:57:54;7.60;;;5.75;;
52744;SDS011;38637;49.984;20.426;2023-01-10T14:00:26;7.97;;;5.85;;
52744;SDS011;38637;49.984;20.426;2023-01-10T14:03:44;7.07;;;5.20;;
52744;SDS011;38637;49.984;20.426;2023-01-10T14:08:50;8.55;;;6.00;;
52744;SDS011;38637;49.984;20.426;2023-01-10T14:11:17;8.68;;;6.53;;
52744;SDS011;38637;49.984;20.426;2023-01-10T14:19:01;11.50;;;7.80;;
52744;SDS011;38637;49.984;20.426;2023-01-10T14:21:29;9.15;;;7.57;;
52744;SDS011;38637;49.984;20.426;2023-01-10T14:24:00;11.70;;;8.32;;
52744;SDS011;38637;49.984;20.426;2023-01-10T14:26:31;13.43;;;7.63;;
52744;SDS011;38637;49.984;20.426;2023-01-10T14:29:04;7.57;;;6.07;;
52744;SDS011;38637;49.984;20.426;2023-01-10T14:31:32;12.00;;;8.75;;
52744;SDS011;38637;49.984;20.426;2023-01-10T14:34:01;11.43;;;8.23;;
52744;SDS011;38637;49.984;20.426;2023-01-10T14:36:30;11.32;;;7.55;;
52744;SDS011;38637;49.984;20.426;2023-01-10T14:39:03;11.63;;;8.43;;
52744;SDS011;38637;49.984;20.426;2023-01-10T14:41:34;12.38;;;8.65;;
52744;SDS011;38637;49.984;20.426;2023-01-10T14:44:12;15.00;;;10.40;;
52744;SDS011;38637;49.984;20.426;2023-01-10T14:49:56;15.40;;;11.85;;
52744;SDS011;38637;49.984;20.426;2023-01-10T14:52:21;15.73;;;11.40;;
52744;SDS011;38637;49.984;20.426;2023-01-10T14:54:53;16.58;;;11.50;;
52744;SDS011;38637;49.984;20.426;2023-01-10T14:57:33;13.82;;;11.18;;
52744;SDS011;38637;49.984;20.426;2023-01-10T15:00:16;14.73;;;11.23;;
52744;SDS011;38637;49.984;20.426;2023-01-10T15:02:43;14.10;;;10.55;;
52744;SDS011;38637;49.984;20.426;2023-01-10T15:05:23;14.50;;;10.85;;
52744;SDS011;38637;49.984;20.426;2023-01-10T15:07:51;17.83;;;11.88;;
52744;SDS011;38637;49.984;20.426;2023-01-10T15:10:51;20.23;;;14.05;;
52744;SDS011;38637;49.984;20.426;2023-01-10T15:13:12;21.33;;;15.45;;
52744;SDS011;38637;49.984;20.426;2023-01-10T15:15:39;19.13;;;14.30;;
52744;SDS011;38637;49.984;20.426;2023-01-10T15:18:16;19.75;;;15.60;;
52744;SDS011;38637;49.984;20.426;2023-01-10T15:20:48;24.08;;;19.17;;
52744;SDS011;38637;49.984;20.426;2023-01-10T15:23:14;31.30;;;22.77;;
52744;SDS011;38637;49.984;20.426;2023-01-10T15:25:39;32.90;;;23.97;;
52744;SDS011;38637;49.984;20.426;2023-01-10T15:28:13;30.13;;;22.10;;
52744;SDS011;38637;49.984;20.426;2023-01-10T15:30:39;30.40;;;20.02;;
52744;SDS011;38637;49.984;20.426;2023-01-10T15:33:08;27.13;;;20.27;;
52744;SDS011;38637;49.984;20.426;2023-01-10T15:35:37;29.67;;;21.05;;
52744;SDS011;38637;49.984;20.426;2023-01-10T15:38:06;28.53;;;21.10;;
52744;SDS011;38637;49.984;20.426;2023-01-10T15:40:37;25.25;;;19.90;;
52744;SDS011;38637;49.984;20.426;2023-01-10T15:43:11;24.40;;;17.70;;
52744;SDS011;38637;49.984;20.426;2023-01-10T15:45:48;24.42;;;19.17;;
52744;SDS011;38637;49.984;20.426;2023-01-10T15:51:01;26.30;;;20.42;;
52744;SDS011;38637;49.984;20.426;2023-01-10T15:53:54;28.00;;;18.85;;
52744;SDS011;38637;49.984;20.426;2023-01-10T15:56:25;26.42;;;18.52;;